createdAt,value
2023-04-08T00:01:32.962Z,98978.31
2023-04-08T00:04:02.582Z,98971.81
2023-04-08T00:06:32.734Z,98968.06
2023-04-08T00:09:02.074Z,98977.69
2023-04-08T00:11:32.034Z,98978.72
2023-04-08T00:14:02.057Z,98980.59
2023-04-08T00:16:31.710Z,98981.19
2023-04-08T00:19:01.087Z,98993.78
2023-04-08T00:21:31.132Z,98988.31
2023-04-08T00:24:00.306Z,98983.44
2023-04-08T00:26:30.045Z,98985.84
2023-04-08T00:28:59.129Z,98987.16
2023-04-08T00:31:29.355Z,98981.69
2023-04-08T00:33:59.988Z,98985.44
2023-04-08T00:36:29.488Z,98989.19
2023-04-08T00:38:58.905Z,98987.69
2023-04-08T00:41:28.255Z,98999.66
2023-04-08T00:43:58.648Z,99002.63
2023-04-08T00:46:27.856Z,99001.53
2023-04-08T00:48:57.313Z,98999.66
2023-04-08T00:51:27.364Z,99004.81
2023-04-08T00:53:57.018Z,99002.69
2023-04-08T00:56:27.383Z,99003.28
2023-04-08T00:58:57.732Z,99009.78
2023-04-08T01:01:29.967Z,99006.38
2023-04-08T01:04:25.619Z,99009.16
2023-04-08T01:07:16.766Z,99011.13
2023-04-08T01:09:53.743Z,99012.28
2023-04-08T01:12:30.763Z,99014.81
2023-04-08T01:15:12.801Z,99020.63
2023-04-08T01:17:43.696Z,99022.13
2023-04-08T01:20:15.212Z,99021.72
2023-04-08T01:23:02.500Z,99025.44
2023-04-08T01:25:41.462Z,99026.88
2023-04-08T01:28:18.285Z,99028.63
2023-04-08T01:30:49.005Z,99031.94
2023-04-08T01:33:20.416Z,99025.91
2023-04-08T01:35:50.184Z,99030.06
2023-04-08T01:38:21.838Z,99036.41
2023-04-08T01:40:52.467Z,99040.31
2023-04-08T01:43:22.347Z,99034.88
2023-04-08T01:45:55.605Z,99042.00
2023-04-08T01:48:25.091Z,99037.34
2023-04-08T01:50:56.106Z,99040.50
2023-04-08T01:53:25.505Z,99039.03
2023-04-08T01:56:03.264Z,99046.72
2023-04-08T01:58:40.368Z,99044.84
2023-04-08T02:01:15.611Z,99044.47
2023-04-08T02:03:47.162Z,99043.06
2023-04-08T02:06:16.956Z,99042.94
2023-04-08T02:08:47.651Z,99055.06
2023-04-08T02:11:17.543Z,99056.09
2023-04-08T02:13:47.097Z,99047.59
2023-04-08T02:16:36.150Z,99052.16
2023-04-08T02:19:19.986Z,99055.16
2023-04-08T02:21:56.772Z,99055.50
2023-04-08T02:24:29.969Z,99060.25
2023-04-08T02:27:05.251Z,99063.91
2023-04-08T02:29:37.748Z,99069.22
2023-04-08T02:32:07.816Z,99073.97
2023-04-08T02:34:38.910Z,99080.41
2023-04-08T02:37:09.069Z,99072.72
2023-04-08T02:39:38.421Z,99082.16
2023-04-08T02:42:08.999Z,99084.69
2023-04-08T02:44:40.061Z,99089.50
2023-04-08T02:47:09.287Z,99084.94
2023-04-08T02:49:38.550Z,99089.59
2023-04-08T02:52:07.836Z,99088.28
2023-04-08T02:54:37.096Z,99093.22
2023-04-08T02:57:06.439Z,99101.28
2023-04-08T02:59:38.907Z,99098.25
2023-04-08T03:02:08.207Z,99091.13
2023-04-08T03:04:37.615Z,99105.09
2023-04-08T03:07:08.628Z,99097.19
2023-04-08T03:09:38.320Z,99108.25
2023-04-08T03:12:07.876Z,99107.72
2023-04-08T03:14:37.084Z,99112.78
2023-04-08T03:17:06.673Z,99113.97
2023-04-08T03:19:35.884Z,99110.09
2023-04-08T03:22:05.157Z,99107.38
2023-04-08T03:24:34.819Z,99114.97
2023-04-08T03:27:05.093Z,99111.63
2023-04-08T03:29:34.236Z,99111.28
2023-04-08T03:32:04.055Z,99116.41
2023-04-08T03:34:33.405Z,99119.41
2023-04-08T03:37:03.020Z,99113.94
2023-04-08T03:39:32.660Z,99122.94
2023-04-08T03:42:02.299Z,99123.19
2023-04-08T03:44:31.615Z,99123.75
2023-04-08T03:47:01.015Z,99127.53
2023-04-08T03:49:30.252Z,99128.34
2023-04-08T03:51:59.423Z,99121.56
2023-04-08T03:54:28.853Z,99122.63
2023-04-08T03:56:58.075Z,99125.66
2023-04-08T03:59:28.180Z,99131.81
2023-04-08T04:01:57.595Z,99134.75
2023-04-08T04:04:26.925Z,99128.78
2023-04-08T04:06:57.584Z,99131.75
2023-04-08T04:09:26.884Z,99133.66
2023-04-08T04:11:56.281Z,99127.94
2023-04-08T04:14:25.734Z,99139.03
2023-04-08T04:16:55.038Z,99138.19
2023-04-08T04:19:25.007Z,99137.00
2023-04-08T04:21:54.005Z,99135.78
2023-04-08T04:24:23.554Z,99136.19
2023-04-08T04:26:52.975Z,99137.41
2023-04-08T04:29:23.049Z,99135.56
2023-04-08T04:31:52.440Z,99139.03
2023-04-08T04:34:21.725Z,99138.63
2023-04-08T04:36:51.526Z,99147.16
2023-04-08T04:39:20.660Z,99145.00
2023-04-08T04:41:50.627Z,99144.59
2023-04-08T04:44:20.937Z,99145.22
2023-04-08T04:46:50.553Z,99152.06
2023-04-08T04:49:19.832Z,99150.59
2023-04-08T04:51:50.343Z,99150.97
2023-04-08T04:54:19.653Z,99149.97
2023-04-08T04:56:48.908Z,99152.19
2023-04-08T04:59:18.115Z,99150.28
2023-04-08T05:01:47.722Z,99153.28
2023-04-08T05:04:17.645Z,99151.75
2023-04-08T05:06:46.957Z,99155.09
2023-04-08T05:09:16.676Z,99153.72
2023-04-08T05:11:46.484Z,99152.94
2023-04-08T05:14:15.882Z,99156.28
2023-04-08T05:16:45.344Z,99156.22
2023-04-08T05:19:14.942Z,99154.50
2023-04-08T05:21:44.299Z,99151.41
2023-04-08T05:24:13.886Z,99155.03
2023-04-08T05:26:43.357Z,99154.22
2023-04-08T05:29:12.972Z,99155.69
2023-04-08T05:31:42.570Z,99147.78
2023-04-08T05:34:12.557Z,99143.25
2023-04-08T05:36:41.964Z,99148.53
2023-04-08T05:39:11.574Z,99149.50
2023-04-08T05:41:40.750Z,99143.94
2023-04-08T05:44:09.925Z,99146.00
2023-04-08T05:46:40.173Z,99143.25
2023-04-08T05:49:09.953Z,99141.31
2023-04-08T05:51:41.210Z,99144.50
2023-04-08T05:54:11.157Z,99132.34
2023-04-08T05:56:40.494Z,99131.91
2023-04-08T05:59:09.724Z,99135.63
2023-04-08T06:01:39.993Z,99142.84
2023-04-08T06:04:09.526Z,99138.66
2023-04-08T06:06:42.395Z,99133.44
2023-04-08T06:09:11.896Z,99127.44
2023-04-08T06:11:41.336Z,99128.38
2023-04-08T06:14:10.560Z,99123.06
2023-04-08T06:16:40.105Z,99119.53
2023-04-08T06:19:09.357Z,99121.53
2023-04-08T06:21:39.073Z,99116.78
2023-04-08T06:24:08.811Z,99110.66
2023-04-08T06:26:37.849Z,99109.19
2023-04-08T06:29:07.755Z,99115.44
2023-04-08T06:31:37.123Z,99107.72
2023-04-08T06:34:18.023Z,99109.03
2023-04-08T06:36:47.590Z,99107.75
2023-04-08T06:39:18.199Z,99102.84
2023-04-08T06:41:47.801Z,99099.91
2023-04-08T06:44:37.956Z,99098.91
2023-04-08T06:47:07.509Z,99096.34
2023-04-08T06:49:38.628Z,99096.31
2023-04-08T06:52:08.053Z,99090.63
2023-04-08T06:54:37.973Z,99094.09
2023-04-08T06:57:07.660Z,99093.50
2023-04-08T06:59:37.354Z,99089.19
2023-04-08T07:02:06.710Z,99081.16
2023-04-08T07:04:36.014Z,99080.41
2023-04-08T07:07:05.806Z,99071.41
2023-04-08T07:09:38.003Z,99083.66
2023-04-08T07:12:07.563Z,99072.38
2023-04-08T07:14:37.095Z,99079.19
2023-04-08T07:17:07.518Z,99073.19
2023-04-08T07:19:37.629Z,99082.88
2023-04-08T07:22:06.924Z,99065.03
2023-04-08T07:24:36.218Z,99050.72
2023-04-08T07:27:05.713Z,99070.28
2023-04-08T07:29:35.545Z,99066.88
2023-04-08T07:32:04.616Z,99067.03
2023-04-08T07:34:35.835Z,99064.44
2023-04-08T07:37:05.444Z,99067.19
2023-04-08T07:39:34.659Z,99054.31
2023-04-08T07:42:04.514Z,99055.28
2023-04-08T07:44:33.642Z,99055.44
2023-04-08T07:47:03.455Z,99049.47
2023-04-08T07:49:32.520Z,99052.66
2023-04-08T07:52:02.184Z,99048.94
2023-04-08T07:54:35.292Z,99045.91
2023-04-08T07:57:05.213Z,99043.53
2023-04-08T07:59:34.724Z,99033.47
2023-04-08T08:02:04.362Z,99029.91
2023-04-08T08:04:34.165Z,99033.94
2023-04-08T08:07:04.003Z,99026.16
2023-04-08T08:09:33.318Z,99031.47
2023-04-08T08:12:03.002Z,99026.34
2023-04-08T08:14:32.542Z,99016.38
2023-04-08T08:17:02.598Z,99018.00
2023-04-08T08:19:32.661Z,99016.25
2023-04-08T08:22:02.075Z,99016.41
2023-04-08T08:24:31.791Z,99014.63
2023-04-08T08:27:02.395Z,99010.78
2023-04-08T08:29:31.972Z,99000.59
2023-04-08T08:32:01.350Z,99005.44
2023-04-08T08:34:31.592Z,99003.63
2023-04-08T08:37:01.121Z,98998.03
2023-04-08T08:39:30.525Z,98997.38
2023-04-08T08:41:59.704Z,98990.59
2023-04-08T08:44:29.640Z,98984.31
2023-04-08T08:46:58.866Z,98987.38
2023-04-08T08:49:29.205Z,98982.25
2023-04-08T08:52:00.265Z,98973.56
2023-04-08T08:54:30.106Z,98978.09
2023-04-08T08:56:59.816Z,98973.72
2023-04-08T08:59:29.388Z,98970.03
2023-04-08T09:01:59.119Z,98962.63
2023-04-08T09:04:28.690Z,98959.06
2023-04-08T09:07:15.257Z,98957.81
2023-04-08T09:10:03.381Z,98955.53
2023-04-08T09:12:33.127Z,98952.44
2023-04-08T09:15:07.597Z,98948.06
2023-04-08T09:17:42.732Z,98945.34
2023-04-08T09:20:16.323Z,98953.41
2023-04-08T09:23:00.527Z,98937.34
2023-04-08T09:25:29.841Z,98929.91
2023-04-08T09:27:59.383Z,98934.44
2023-04-08T09:30:29.933Z,98936.84
2023-04-08T09:33:00.327Z,98935.41
2023-04-08T09:35:30.231Z,98925.75
2023-04-08T09:37:59.676Z,98928.16
2023-04-08T09:40:33.680Z,98922.66
2023-04-08T09:43:11.252Z,98921.38
2023-04-08T09:45:44.055Z,98919.44
2023-04-08T09:48:25.304Z,98921.50
2023-04-08T09:51:00.190Z,98910.56
2023-04-08T09:53:38.060Z,98904.81
2023-04-08T09:56:12.050Z,98906.25
2023-04-08T09:58:48.260Z,98908.22
2023-04-08T10:01:21.420Z,98908.00
2023-04-08T10:03:54.571Z,98908.34
2023-04-08T10:06:30.008Z,98903.03
2023-04-08T10:09:00.366Z,98901.56
2023-04-08T10:11:30.232Z,98907.84
2023-04-08T10:14:00.163Z,98893.19
2023-04-08T10:16:29.299Z,98891.13
2023-04-08T10:18:59.255Z,98898.56
2023-04-08T10:21:49.679Z,98893.38
2023-04-08T10:24:25.322Z,98887.09
2023-04-08T10:26:54.869Z,98886.16
2023-04-08T10:29:30.908Z,98885.84
2023-04-08T10:32:00.833Z,98873.75
2023-04-08T10:34:30.991Z,98876.47
2023-04-08T10:37:00.648Z,98882.63
2023-04-08T10:39:29.972Z,98880.00
2023-04-08T10:42:00.180Z,98880.50
2023-04-08T10:44:29.377Z,98882.59
2023-04-08T10:46:58.845Z,98872.44
2023-04-08T10:49:36.068Z,98874.22
2023-04-08T10:52:10.261Z,98870.34
2023-04-08T10:54:40.816Z,98858.78
2023-04-08T10:57:12.594Z,98859.59
2023-04-08T10:59:43.324Z,98855.06
2023-04-08T11:02:17.534Z,98852.16
2023-04-08T11:04:49.589Z,98857.00
2023-04-08T11:07:22.375Z,98848.13
2023-04-08T11:09:51.982Z,98847.31
2023-04-08T11:12:22.705Z,98847.88
2023-04-08T11:14:54.072Z,98851.31
2023-04-08T11:17:23.863Z,98849.13
2023-04-08T11:19:54.853Z,98854.03
2023-04-08T11:22:24.861Z,98841.78
2023-04-08T11:24:54.415Z,98838.47
2023-04-08T11:27:29.661Z,98838.16
2023-04-08T11:30:00.303Z,98840.13
2023-04-08T11:32:30.918Z,98841.84
2023-04-08T11:35:06.172Z,98845.03
2023-04-08T11:37:43.368Z,98840.72
2023-04-08T11:40:14.129Z,98843.91
2023-04-08T11:42:45.994Z,98846.31
2023-04-08T11:45:20.828Z,98840.38
2023-04-08T11:47:51.047Z,98848.56
2023-04-08T11:50:28.081Z,98838.47
2023-04-08T11:52:58.548Z,98848.91
2023-04-08T11:55:30.378Z,98845.22
2023-04-08T11:58:04.848Z,98838.53
2023-04-08T12:00:35.277Z,98842.22
2023-04-08T12:03:05.623Z,98840.44
2023-04-08T12:05:35.500Z,98842.13
2023-04-08T12:08:05.586Z,98837.44
2023-04-08T12:10:35.106Z,98846.16
2023-04-08T12:13:04.265Z,98837.16
2023-04-08T12:15:34.157Z,98843.66
2023-04-08T12:18:03.599Z,98851.81
2023-04-08T12:20:33.529Z,98845.03
2023-04-08T12:23:02.635Z,98845.47
2023-04-08T12:25:32.511Z,98845.56
2023-04-08T12:28:01.885Z,98844.47
2023-04-08T12:30:33.099Z,98848.81
2023-04-08T12:33:02.562Z,98842.50
2023-04-08T12:35:32.461Z,98847.91
2023-04-08T12:38:02.156Z,98836.41
2023-04-08T12:40:31.556Z,98850.78
2023-04-08T12:43:00.970Z,98846.06
2023-04-08T12:45:30.187Z,98848.09
2023-04-08T12:47:59.374Z,98841.13
2023-04-08T12:50:28.794Z,98847.81
2023-04-08T12:52:58.011Z,98845.00
2023-04-08T12:55:27.532Z,98843.31
2023-04-08T12:57:56.517Z,98847.25
2023-04-08T13:00:26.162Z,98848.06
2023-04-08T13:02:55.347Z,98846.34
2023-04-08T13:05:39.654Z,98844.03
2023-04-08T13:08:16.002Z,98849.25
2023-04-08T13:10:45.453Z,98851.56
2023-04-08T13:13:15.529Z,98853.47
2023-04-08T13:15:44.892Z,98851.63
2023-04-08T13:18:14.239Z,98857.97
2023-04-08T13:20:44.040Z,98860.41
2023-04-08T13:23:15.638Z,98856.94
2023-04-08T13:25:46.804Z,98866.41
2023-04-08T13:28:16.690Z,98869.13
2023-04-08T13:30:46.069Z,98871.28
2023-04-08T13:33:15.201Z,98864.75
2023-04-08T13:35:45.339Z,98869.56
2023-04-08T13:38:14.816Z,98871.31
2023-04-08T13:40:44.876Z,98870.69
2023-04-08T13:43:16.226Z,98869.19
2023-04-08T13:45:45.718Z,98870.41
2023-04-08T13:48:15.167Z,98874.28
2023-04-08T13:50:44.904Z,98877.88
2023-04-08T13:53:14.643Z,98887.16
2023-04-08T13:55:45.073Z,98889.09
2023-04-08T13:58:23.308Z,98885.34
2023-04-08T14:00:54.205Z,98884.06
2023-04-08T14:03:23.563Z,98893.53
2023-04-08T14:05:53.336Z,98880.56
2023-04-08T14:08:26.441Z,98877.63
2023-04-08T14:10:58.729Z,98879.78
2023-04-08T14:13:28.646Z,98880.63
2023-04-08T14:15:59.458Z,98886.06
2023-04-08T14:18:30.064Z,98885.00
2023-04-08T14:20:59.341Z,98883.97
2023-04-08T14:23:28.776Z,98887.50
2023-04-08T14:25:58.128Z,98891.63
2023-04-08T14:28:27.501Z,98889.75
2023-04-08T14:30:57.358Z,98895.41
2023-04-08T14:33:27.144Z,98896.25
2023-04-08T14:35:56.726Z,98895.75
2023-04-08T14:38:26.153Z,98899.59
2023-04-08T14:40:56.580Z,98901.81
2023-04-08T14:43:25.896Z,98904.00
2023-04-08T14:45:55.772Z,98904.53
2023-04-08T14:48:27.439Z,98912.94
2023-04-08T14:50:57.060Z,98913.25
2023-04-08T14:53:27.183Z,98918.94
2023-04-08T14:55:56.457Z,98921.41
2023-04-08T14:58:26.011Z,98921.97
2023-04-08T15:00:56.679Z,98933.84
2023-04-08T15:03:26.603Z,98931.16
2023-04-08T15:05:59.755Z,98940.34
2023-04-08T15:08:29.979Z,98939.28
2023-04-08T15:11:00.139Z,98945.22
2023-04-08T15:13:29.452Z,98946.34
2023-04-08T15:15:59.157Z,98953.34
2023-04-08T15:18:28.985Z,98948.22
2023-04-08T15:20:59.309Z,98954.97
2023-04-08T15:23:29.023Z,98958.00
2023-04-08T15:25:58.841Z,98961.25
2023-04-08T15:28:28.587Z,98967.47
2023-04-08T15:30:58.245Z,98967.47
2023-04-08T15:33:28.183Z,98966.41
2023-04-08T15:36:01.111Z,98970.69
2023-04-08T15:38:31.575Z,98976.41
2023-04-08T15:41:01.363Z,98979.66
2023-04-08T15:43:31.540Z,98976.16
2023-04-08T15:46:01.185Z,98976.16
2023-04-08T15:48:31.000Z,98981.31
2023-04-08T15:51:07.554Z,98986.16
2023-04-08T15:53:38.020Z,98983.44
2023-04-08T15:56:08.789Z,98991.03
2023-04-08T15:58:38.679Z,98991.56
2023-04-08T16:01:08.139Z,98997.81
2023-04-08T16:03:38.511Z,98997.81
2023-04-08T16:06:10.024Z,98999.69
2023-04-08T16:08:39.931Z,99002.09
2023-04-08T16:11:09.966Z,98995.34
2023-04-08T16:13:42.045Z,98996.19
2023-04-08T16:16:13.432Z,99003.75
2023-04-08T16:18:45.348Z,99002.66
2023-04-08T16:21:15.511Z,99000.78
2023-04-08T16:23:45.549Z,99004.28
2023-04-08T16:26:14.756Z,99012.13
2023-04-08T16:28:44.605Z,99003.47
2023-04-08T16:31:14.041Z,99010.50
2023-04-08T16:33:43.815Z,99015.34
2023-04-08T16:36:14.090Z,99016.72
2023-04-08T16:38:44.210Z,99015.09
2023-04-08T16:41:13.985Z,99016.44
2023-04-08T16:43:43.985Z,99016.16
2023-04-08T16:46:16.570Z,99011.81
2023-04-08T16:48:46.183Z,99014.50
2023-04-08T16:51:15.436Z,99012.84
2023-04-08T16:53:44.780Z,99019.06
2023-04-08T16:56:18.423Z,99015.03
2023-04-08T16:58:47.909Z,99023.13
2023-04-08T17:01:17.180Z,99026.09
2023-04-08T17:03:49.043Z,99020.16
2023-04-08T17:06:18.857Z,99027.97
2023-04-08T17:08:49.450Z,99031.19
2023-04-08T17:11:19.438Z,99030.94
2023-04-08T17:13:49.176Z,99028.50
2023-04-08T17:16:19.772Z,99026.88
2023-04-08T17:18:49.645Z,99026.31
2023-04-08T17:21:19.133Z,99018.19
2023-04-08T17:23:48.592Z,99008.75
2023-04-08T17:26:18.076Z,99017.09
2023-04-08T17:28:47.909Z,99014.13
2023-04-08T17:31:17.279Z,99013.28
2023-04-08T17:33:47.255Z,99009.50
2023-04-08T17:36:18.525Z,99010.53
2023-04-08T17:38:50.546Z,99018.91
2023-04-08T17:41:38.347Z,99014.84
2023-04-08T17:44:09.432Z,99011.63
2023-04-08T17:46:39.327Z,99011.94
2023-04-08T17:49:08.680Z,99015.50
2023-04-08T17:51:38.847Z,99018.22
2023-04-08T17:54:08.635Z,99019.06
2023-04-08T17:56:38.164Z,99018.00
2023-04-08T17:59:08.390Z,99016.91
2023-04-08T18:01:40.892Z,99014.16
2023-04-08T18:04:11.475Z,99019.91
2023-04-08T18:06:41.091Z,99015.84
2023-04-08T18:09:10.541Z,99017.19
2023-04-08T18:11:39.989Z,99019.38
2023-04-08T18:14:10.402Z,99019.34
2023-04-08T18:16:41.013Z,99026.94
2023-04-08T18:19:11.114Z,99024.19
2023-04-08T18:21:40.528Z,99024.19
2023-04-08T18:24:09.966Z,99021.41
2023-04-08T18:26:39.222Z,99024.34
2023-04-08T18:29:09.342Z,99020.53
2023-04-08T18:31:39.194Z,99021.25
2023-04-08T18:34:09.884Z,99023.97
2023-04-08T18:36:39.859Z,99023.94
2023-04-08T18:39:09.168Z,99019.56
2023-04-08T18:41:40.326Z,99021.22
2023-04-08T18:44:09.692Z,99026.31
2023-04-08T18:46:39.886Z,99023.25
2023-04-08T18:49:09.384Z,99018.91
2023-04-08T18:51:40.676Z,99026.47
2023-04-08T18:54:10.804Z,99019.44
2023-04-08T18:56:41.717Z,99025.34
2023-04-08T18:59:11.663Z,99023.13
2023-04-08T19:01:41.580Z,99030.69
2023-04-08T19:04:12.749Z,99023.34
2023-04-08T19:06:42.988Z,99025.78
2023-04-08T19:09:12.233Z,99020.34
2023-04-08T19:11:42.294Z,99020.84
2023-04-08T19:14:11.939Z,99020.84
2023-04-08T19:16:41.821Z,99024.63
2023-04-08T19:19:11.418Z,99020.28
2023-04-08T19:21:41.462Z,99020.28
2023-04-08T19:24:11.336Z,99017.31
2023-04-08T19:26:40.790Z,99024.25
2023-04-08T19:29:10.557Z,99029.91
2023-04-08T19:31:40.462Z,99023.38
2023-04-08T19:34:09.652Z,99017.72
2023-04-08T19:36:39.740Z,99018.00
2023-04-08T19:39:08.950Z,99022.56
2023-04-08T19:41:38.498Z,99019.28
2023-04-08T19:44:07.904Z,99019.00
2023-04-08T19:46:38.419Z,99023.31
2023-04-08T19:49:08.005Z,99029.25
2023-04-08T19:51:37.753Z,99025.22
2023-04-08T19:54:07.374Z,99024.13
2023-04-08T19:56:38.060Z,99024.63
2023-04-08T19:59:07.913Z,99018.44
2023-04-08T20:01:37.440Z,99013.25
2023-04-08T20:04:07.236Z,99014.81
2023-04-08T20:06:36.662Z,99011.34
2023-04-08T20:09:06.780Z,99012.88
2023-04-08T20:11:36.277Z,99009.72
2023-04-08T20:14:06.523Z,99013.72
2023-04-08T20:16:36.198Z,99009.41
2023-04-08T20:19:05.581Z,99006.44
2023-04-08T20:21:35.063Z,99004.25
2023-04-08T20:24:04.933Z,99006.66
2023-04-08T20:26:35.357Z,99011.25
2023-04-08T20:29:04.857Z,99003.91
2023-04-08T20:31:34.923Z,99001.75
2023-04-08T20:34:04.927Z,99004.38
2023-04-08T20:36:35.640Z,98990.91
2023-04-08T20:39:05.709Z,98995.53
2023-04-08T20:41:34.888Z,98998.94
2023-04-08T20:44:07.294Z,98993.19
2023-04-08T20:46:37.013Z,98988.16
2023-04-08T20:49:07.076Z,98987.66
2023-04-08T20:51:36.720Z,99001.88
2023-04-08T20:54:09.409Z,98986.47
2023-04-08T20:56:39.861Z,98989.47
2023-04-08T20:59:12.973Z,98982.97
2023-04-08T21:01:42.507Z,98986.78
2023-04-08T21:04:11.886Z,98991.88
2023-04-08T21:06:41.448Z,98992.84
2023-04-08T21:09:12.359Z,98985.00
2023-04-08T21:11:41.815Z,98979.44
2023-04-08T21:14:11.440Z,98987.25
2023-04-08T21:16:40.747Z,98991.41
2023-04-08T21:19:10.133Z,98980.91
2023-04-08T21:21:39.728Z,98985.69
2023-04-08T21:24:10.711Z,98986.78
2023-04-08T21:26:40.801Z,98985.19
2023-04-08T21:29:09.833Z,98989.06
2023-04-08T21:31:41.159Z,98985.97
2023-04-08T21:34:10.795Z,98976.31
2023-04-08T21:36:41.393Z,98973.94
2023-04-08T21:39:10.615Z,98988.53
2023-04-08T21:41:40.062Z,98981.19
2023-04-08T21:44:11.421Z,98977.69
2023-04-08T21:46:40.706Z,98966.34
2023-04-08T21:49:12.433Z,98962.28
2023-04-08T21:51:42.014Z,98975.25
2023-04-08T21:54:11.349Z,98975.69
2023-04-08T21:56:41.016Z,98969.41
2023-04-08T21:59:10.543Z,98973.75
2023-04-08T22:01:40.060Z,98967.00
2023-04-08T22:04:09.672Z,98969.94
2023-04-08T22:06:39.365Z,98971.56
2023-04-08T22:09:08.921Z,98972.13
2023-04-08T22:11:38.263Z,98981.66
2023-04-08T22:14:07.685Z,98972.88
2023-04-08T22:16:37.630Z,98971.25
2023-04-08T22:19:07.533Z,98964.19
2023-04-08T22:21:37.378Z,98972.38
2023-04-08T22:24:10.180Z,98970.25
2023-04-08T22:26:39.728Z,98972.56
2023-04-08T22:29:10.186Z,98967.41
2023-04-08T22:31:59.991Z,98968.59
2023-04-08T22:34:29.823Z,98970.69
2023-04-08T22:36:59.393Z,98966.66
2023-04-08T22:39:29.272Z,98968.38
2023-04-08T22:41:59.066Z,98978.91
2023-04-08T22:44:28.589Z,98970.09
2023-04-08T22:46:58.063Z,98968.16
2023-04-08T22:49:28.290Z,98972.78
2023-04-08T22:51:57.951Z,98972.88
2023-04-08T22:54:27.197Z,98972.56
2023-04-08T22:56:56.894Z,98977.78
2023-04-08T22:59:27.589Z,98980.09
2023-04-08T23:01:57.600Z,98972.78
2023-04-08T23:04:27.206Z,98966.50
2023-04-08T23:06:56.456Z,98971.75
2023-04-08T23:09:27.950Z,98976.31
2023-04-08T23:11:57.335Z,98973.06
2023-04-08T23:14:27.253Z,98980.81
2023-04-08T23:16:56.896Z,98975.84
2023-04-08T23:19:26.385Z,98981.06
2023-04-08T23:21:55.777Z,98978.38
2023-04-08T23:24:25.149Z,98979.22
2023-04-08T23:26:55.484Z,98983.56
2023-04-08T23:29:25.435Z,98980.28
2023-04-08T23:31:54.840Z,98975.63
2023-04-08T23:34:24.142Z,98982.56
2023-04-08T23:36:53.510Z,98982.75
2023-04-08T23:39:41.198Z,98986.00
2023-04-08T23:42:10.768Z,98983.06
2023-04-08T23:44:40.710Z,98984.19
2023-04-08T23:47:10.342Z,98983.69
2023-04-08T23:49:39.471Z,98988.75
2023-04-08T23:52:08.943Z,98992.19
2023-04-08T23:54:38.635Z,98995.81
2023-04-08T23:57:07.966Z,99000.81
2023-04-08T23:59:37.194Z,99008.22
